sensor_id;sensor_type;location;lat;lon;timestamp;P1;durP1;ratioP1;P2;durP2;ratioP2
2406;SDS011;37709;53.480;9.688;2023-12-20T00:01:39;13.23;;;2.30;;
2406;SDS011;37709;53.480;9.688;2023-12-20T00:04:07;6.27;;;1.90;;
2406;SDS011;37709;53.480;9.688;2023-12-20T00:06:34;12.17;;;2.33;;
2406;SDS011;37709;53.480;9.688;2023-12-20T00:09:03;9.97;;;3.27;;
2406;SDS011;37709;53.480;9.688;2023-12-20T00:11:30;6.73;;;1.60;;
2406;SDS011;37709;53.480;9.688;2023-12-20T00:13:58;9.63;;;2.23;;
2406;SDS011;37709;53.480;9.688;2023-12-20T00:16:25;6.90;;;1.80;;
2406;SDS011;37709;53.480;9.688;2023-12-20T00:18:53;5.77;;;1.93;;
2406;SDS011;37709;53.480;9.688;2023-12-20T00:21:21;10.33;;;2.67;;
2406;SDS011;37709;53.480;9.688;2023-12-20T00:23:49;6.60;;;1.60;;
2406;SDS011;37709;53.480;9.688;2023-12-20T00:26:18;13.27;;;2.17;;
2406;SDS011;37709;53.480;9.688;2023-12-20T00:28:46;13.07;;;3.60;;
2406;SDS011;37709;53.480;9.688;2023-12-20T00:31:13;10.50;;;2.17;;
2406;SDS011;37709;53.480;9.688;2023-12-20T00:33:41;15.10;;;4.77;;
2406;SDS011;37709;53.480;9.688;2023-12-20T00:36:12;13.83;;;2.60;;
2406;SDS011;37709;53.480;9.688;2023-12-20T00:38:39;9.43;;;2.33;;
2406;SDS011;37709;53.480;9.688;2023-12-20T00:41:07;12.87;;;2.00;;
2406;SDS011;37709;53.480;9.688;2023-12-20T00:43:35;13.43;;;2.80;;
2406;SDS011;37709;53.480;9.688;2023-12-20T00:46:02;7.33;;;2.10;;
2406;SDS011;37709;53.480;9.688;2023-12-20T00:48:29;15.40;;;2.87;;
2406;SDS011;37709;53.480;9.688;2023-12-20T00:50:58;8.97;;;2.33;;
2406;SDS011;37709;53.480;9.688;2023-12-20T00:53:26;10.37;;;1.90;;
2406;SDS011;37709;53.480;9.688;2023-12-20T00:55:55;8.37;;;2.10;;
2406;SDS011;37709;53.480;9.688;2023-12-20T00:58:23;11.57;;;2.10;;
2406;SDS011;37709;53.480;9.688;2023-12-20T01:00:51;16.67;;;3.90;;
2406;SDS011;37709;53.480;9.688;2023-12-20T01:03:19;14.83;;;2.20;;
2406;SDS011;37709;53.480;9.688;2023-12-20T01:05:47;8.83;;;2.80;;
2406;SDS011;37709;53.480;9.688;2023-12-20T01:08:15;8.07;;;2.07;;
2406;SDS011;37709;53.480;9.688;2023-12-20T01:10:44;10.77;;;2.40;;
2406;SDS011;37709;53.480;9.688;2023-12-20T01:13:12;11.70;;;2.20;;
2406;SDS011;37709;53.480;9.688;2023-12-20T01:15:39;9.37;;;2.93;;
2406;SDS011;37709;53.480;9.688;2023-12-20T01:18:08;10.63;;;2.87;;
2406;SDS011;37709;53.480;9.688;2023-12-20T01:20:37;9.03;;;2.27;;
2406;SDS011;37709;53.480;9.688;2023-12-20T01:23:04;10.40;;;2.87;;
2406;SDS011;37709;53.480;9.688;2023-12-20T01:25:32;11.20;;;2.00;;
2406;SDS011;37709;53.480;9.688;2023-12-20T01:27:59;14.83;;;2.97;;
2406;SDS011;37709;53.480;9.688;2023-12-20T01:30:27;6.97;;;2.20;;
2406;SDS011;37709;53.480;9.688;2023-12-20T01:32:55;16.40;;;2.10;;
2406;SDS011;37709;53.480;9.688;2023-12-20T01:35:23;6.53;;;1.60;;
2406;SDS011;37709;53.480;9.688;2023-12-20T01:37:51;11.50;;;3.10;;
2406;SDS011;37709;53.480;9.688;2023-12-20T01:40:24;14.83;;;3.63;;
2406;SDS011;37709;53.480;9.688;2023-12-20T01:43:00;10.40;;;3.10;;
2406;SDS011;37709;53.480;9.688;2023-12-20T01:45:28;10.57;;;2.30;;
2406;SDS011;37709;53.480;9.688;2023-12-20T01:47:56;9.63;;;2.33;;
2406;SDS011;37709;53.480;9.688;2023-12-20T01:50:25;8.53;;;2.10;;
2406;SDS011;37709;53.480;9.688;2023-12-20T01:52:54;8.70;;;2.07;;
2406;SDS011;37709;53.480;9.688;2023-12-20T01:55:27;9.10;;;2.37;;
2406;SDS011;37709;53.480;9.688;2023-12-20T01:57:59;9.23;;;2.70;;
2406;SDS011;37709;53.480;9.688;2023-12-20T02:00:27;9.20;;;2.23;;
2406;SDS011;37709;53.480;9.688;2023-12-20T02:02:59;5.60;;;1.83;;
2406;SDS011;37709;53.480;9.688;2023-12-20T02:05:30;12.90;;;2.70;;
2406;SDS011;37709;53.480;9.688;2023-12-20T02:07:58;10.83;;;2.90;;
2406;SDS011;37709;53.480;9.688;2023-12-20T02:10:26;8.10;;;2.20;;
2406;SDS011;37709;53.480;9.688;2023-12-20T02:12:53;7.97;;;1.80;;
2406;SDS011;37709;53.480;9.688;2023-12-20T02:15:21;11.47;;;2.40;;
2406;SDS011;37709;53.480;9.688;2023-12-20T02:17:48;9.00;;;2.60;;
2406;SDS011;37709;53.480;9.688;2023-12-20T02:20:16;9.13;;;2.70;;
2406;SDS011;37709;53.480;9.688;2023-12-20T02:22:44;6.50;;;1.70;;
2406;SDS011;37709;53.480;9.688;2023-12-20T02:25:11;22.40;;;2.20;;
2406;SDS011;37709;53.480;9.688;2023-12-20T02:27:39;9.90;;;2.50;;
2406;SDS011;37709;53.480;9.688;2023-12-20T02:30:07;6.80;;;2.00;;
2406;SDS011;37709;53.480;9.688;2023-12-20T02:32:35;10.20;;;2.30;;
2406;SDS011;37709;53.480;9.688;2023-12-20T02:35:03;10.37;;;2.97;;
2406;SDS011;37709;53.480;9.688;2023-12-20T02:37:32;6.43;;;2.20;;
2406;SDS011;37709;53.480;9.688;2023-12-20T02:40:01;9.40;;;2.77;;
2406;SDS011;37709;53.480;9.688;2023-12-20T02:42:31;17.57;;;2.60;;
2406;SDS011;37709;53.480;9.688;2023-12-20T02:44:58;7.23;;;2.00;;
2406;SDS011;37709;53.480;9.688;2023-12-20T02:47:26;5.13;;;1.70;;
2406;SDS011;37709;53.480;9.688;2023-12-20T02:49:55;8.60;;;2.40;;
2406;SDS011;37709;53.480;9.688;2023-12-20T02:52:23;8.20;;;1.80;;
2406;SDS011;37709;53.480;9.688;2023-12-20T02:54:51;12.60;;;2.57;;
2406;SDS011;37709;53.480;9.688;2023-12-20T02:57:20;10.63;;;2.17;;
2406;SDS011;37709;53.480;9.688;2023-12-20T02:59:48;9.57;;;2.80;;
2406;SDS011;37709;53.480;9.688;2023-12-20T03:02:16;6.07;;;2.27;;
2406;SDS011;37709;53.480;9.688;2023-12-20T03:04:43;9.87;;;2.23;;
2406;SDS011;37709;53.480;9.688;2023-12-20T03:07:11;11.20;;;2.43;;
2406;SDS011;37709;53.480;9.688;2023-12-20T03:09:39;10.43;;;2.80;;
2406;SDS011;37709;53.480;9.688;2023-12-20T03:12:26;39.37;;;3.30;;
2406;SDS011;37709;53.480;9.688;2023-12-20T03:14:53;7.10;;;2.10;;
2406;SDS011;37709;53.480;9.688;2023-12-20T03:17:21;8.00;;;1.90;;
2406;SDS011;37709;53.480;9.688;2023-12-20T03:19:48;10.43;;;1.83;;
2406;SDS011;37709;53.480;9.688;2023-12-20T03:22:15;7.20;;;1.97;;
2406;SDS011;37709;53.480;9.688;2023-12-20T03:24:44;7.17;;;1.70;;
2406;SDS011;37709;53.480;9.688;2023-12-20T03:27:11;6.83;;;1.60;;
2406;SDS011;37709;53.480;9.688;2023-12-20T03:29:39;12.20;;;2.13;;
2406;SDS011;37709;53.480;9.688;2023-12-20T03:32:06;12.47;;;2.30;;
2406;SDS011;37709;53.480;9.688;2023-12-20T03:34:35;6.33;;;2.40;;
2406;SDS011;37709;53.480;9.688;2023-12-20T03:37:03;5.63;;;2.13;;
2406;SDS011;37709;53.480;9.688;2023-12-20T03:39:31;6.87;;;1.87;;
2406;SDS011;37709;53.480;9.688;2023-12-20T03:42:02;9.63;;;2.17;;
2406;SDS011;37709;53.480;9.688;2023-12-20T03:44:29;10.90;;;2.23;;
2406;SDS011;37709;53.480;9.688;2023-12-20T03:46:56;4.80;;;1.67;;
2406;SDS011;37709;53.480;9.688;2023-12-20T03:49:25;11.27;;;2.30;;
2406;SDS011;37709;53.480;9.688;2023-12-20T03:51:53;7.30;;;2.40;;
2406;SDS011;37709;53.480;9.688;2023-12-20T03:54:22;5.17;;;1.97;;
2406;SDS011;37709;53.480;9.688;2023-12-20T03:56:49;14.70;;;2.40;;
2406;SDS011;37709;53.480;9.688;2023-12-20T03:59:17;6.67;;;2.40;;
2406;SDS011;37709;53.480;9.688;2023-12-20T04:01:48;13.00;;;2.03;;
2406;SDS011;37709;53.480;9.688;2023-12-20T04:04:16;7.73;;;2.10;;
2406;SDS011;37709;53.480;9.688;2023-12-20T04:06:43;9.63;;;2.47;;
2406;SDS011;37709;53.480;9.688;2023-12-20T04:09:11;9.80;;;3.10;;
2406;SDS011;37709;53.480;9.688;2023-12-20T04:11:38;8.03;;;3.30;;
2406;SDS011;37709;53.480;9.688;2023-12-20T04:14:06;6.30;;;1.83;;
2406;SDS011;37709;53.480;9.688;2023-12-20T04:16:38;6.30;;;1.67;;
2406;SDS011;37709;53.480;9.688;2023-12-20T04:19:09;15.53;;;2.60;;
2406;SDS011;37709;53.480;9.688;2023-12-20T04:21:37;5.53;;;1.60;;
2406;SDS011;37709;53.480;9.688;2023-12-20T04:24:06;7.73;;;1.70;;
2406;SDS011;37709;53.480;9.688;2023-12-20T04:26:34;11.33;;;2.47;;
2406;SDS011;37709;53.480;9.688;2023-12-20T04:29:01;7.63;;;2.20;;
2406;SDS011;37709;53.480;9.688;2023-12-20T04:31:28;8.07;;;2.20;;
2406;SDS011;37709;53.480;9.688;2023-12-20T04:33:56;9.20;;;2.30;;
2406;SDS011;37709;53.480;9.688;2023-12-20T04:36:24;7.73;;;2.30;;
2406;SDS011;37709;53.480;9.688;2023-12-20T04:38:53;6.80;;;2.13;;
2406;SDS011;37709;53.480;9.688;2023-12-20T04:41:21;6.53;;;2.57;;
2406;SDS011;37709;53.480;9.688;2023-12-20T04:46:40;9.53;;;2.53;;
2406;SDS011;37709;53.480;9.688;2023-12-20T04:49:11;4.10;;;2.13;;
2406;SDS011;37709;53.480;9.688;2023-12-20T04:51:40;8.33;;;2.50;;
2406;SDS011;37709;53.480;9.688;2023-12-20T04:56:59;9.03;;;2.10;;
2406;SDS011;37709;53.480;9.688;2023-12-20T04:59:27;11.30;;;2.30;;
2406;SDS011;37709;53.480;9.688;2023-12-20T05:01:57;9.10;;;2.13;;
2406;SDS011;37709;53.480;9.688;2023-12-20T05:04:26;6.30;;;2.10;;
2406;SDS011;37709;53.480;9.688;2023-12-20T05:06:53;8.13;;;2.33;;
2406;SDS011;37709;53.480;9.688;2023-12-20T05:09:21;5.63;;;2.57;;
2406;SDS011;37709;53.480;9.688;2023-12-20T05:11:49;7.50;;;2.60;;
2406;SDS011;37709;53.480;9.688;2023-12-20T05:14:16;7.77;;;2.60;;
2406;SDS011;37709;53.480;9.688;2023-12-20T05:16:43;11.83;;;2.90;;
2406;SDS011;37709;53.480;9.688;2023-12-20T05:19:12;9.47;;;2.40;;
2406;SDS011;37709;53.480;9.688;2023-12-20T05:21:39;9.87;;;2.80;;
2406;SDS011;37709;53.480;9.688;2023-12-20T05:24:07;7.90;;;2.10;;
2406;SDS011;37709;53.480;9.688;2023-12-20T05:26:35;7.77;;;2.07;;
2406;SDS011;37709;53.480;9.688;2023-12-20T05:29:04;6.20;;;2.23;;
2406;SDS011;37709;53.480;9.688;2023-12-20T05:31:31;12.50;;;3.60;;
2406;SDS011;37709;53.480;9.688;2023-12-20T05:33:59;5.23;;;2.63;;
2406;SDS011;37709;53.480;9.688;2023-12-20T05:36:26;9.30;;;3.13;;
2406;SDS011;37709;53.480;9.688;2023-12-20T05:38:54;10.37;;;2.37;;
2406;SDS011;37709;53.480;9.688;2023-12-20T05:41:22;10.80;;;2.47;;
2406;SDS011;37709;53.480;9.688;2023-12-20T05:43:49;6.07;;;2.07;;
2406;SDS011;37709;53.480;9.688;2023-12-20T05:46:18;5.87;;;1.77;;
2406;SDS011;37709;53.480;9.688;2023-12-20T05:48:46;7.10;;;2.30;;
2406;SDS011;37709;53.480;9.688;2023-12-20T05:51:13;6.20;;;2.67;;
2406;SDS011;37709;53.480;9.688;2023-12-20T05:53:41;7.27;;;2.50;;
2406;SDS011;37709;53.480;9.688;2023-12-20T05:56:09;9.23;;;2.60;;
2406;SDS011;37709;53.480;9.688;2023-12-20T05:58:38;7.93;;;2.80;;
2406;SDS011;37709;53.480;9.688;2023-12-20T06:01:08;9.77;;;2.53;;
2406;SDS011;37709;53.480;9.688;2023-12-20T06:03:36;11.73;;;3.07;;
2406;SDS011;37709;53.480;9.688;2023-12-20T06:06:06;10.33;;;2.77;;
2406;SDS011;37709;53.480;9.688;2023-12-20T06:08:43;11.30;;;3.60;;
2406;SDS011;37709;53.480;9.688;2023-12-20T06:11:12;12.93;;;2.63;;
2406;SDS011;37709;53.480;9.688;2023-12-20T06:13:41;7.67;;;2.83;;
2406;SDS011;37709;53.480;9.688;2023-12-20T06:16:09;6.00;;;2.70;;
2406;SDS011;37709;53.480;9.688;2023-12-20T06:18:37;10.83;;;2.53;;
2406;SDS011;37709;53.480;9.688;2023-12-20T06:21:05;6.73;;;2.37;;
2406;SDS011;37709;53.480;9.688;2023-12-20T06:23:34;7.70;;;2.50;;
2406;SDS011;37709;53.480;9.688;2023-12-20T06:26:02;8.37;;;2.50;;
2406;SDS011;37709;53.480;9.688;2023-12-20T06:28:29;11.90;;;2.60;;
2406;SDS011;37709;53.480;9.688;2023-12-20T06:30:56;13.73;;;2.93;;
2406;SDS011;37709;53.480;9.688;2023-12-20T06:33:24;6.13;;;2.10;;
2406;SDS011;37709;53.480;9.688;2023-12-20T06:35:52;7.97;;;2.57;;
2406;SDS011;37709;53.480;9.688;2023-12-20T06:38:20;8.97;;;3.10;;
2406;SDS011;37709;53.480;9.688;2023-12-20T06:40:47;8.63;;;2.50;;
2406;SDS011;37709;53.480;9.688;2023-12-20T06:43:14;8.47;;;2.40;;
2406;SDS011;37709;53.480;9.688;2023-12-20T06:46:02;8.70;;;2.47;;
2406;SDS011;37709;53.480;9.688;2023-12-20T06:48:30;13.63;;;2.70;;
2406;SDS011;37709;53.480;9.688;2023-12-20T06:50:59;8.10;;;3.00;;
2406;SDS011;37709;53.480;9.688;2023-12-20T06:53:27;12.93;;;4.00;;
2406;SDS011;37709;53.480;9.688;2023-12-20T06:55:55;9.00;;;3.30;;
2406;SDS011;37709;53.480;9.688;2023-12-20T06:58:25;10.87;;;3.30;;
2406;SDS011;37709;53.480;9.688;2023-12-20T07:00:54;8.23;;;2.30;;
2406;SDS011;37709;53.480;9.688;2023-12-20T07:03:22;10.87;;;3.03;;
2406;SDS011;37709;53.480;9.688;2023-12-20T07:05:50;11.07;;;2.30;;
2406;SDS011;37709;53.480;9.688;2023-12-20T07:08:18;6.33;;;2.43;;
2406;SDS011;37709;53.480;9.688;2023-12-20T07:10:47;8.83;;;2.73;;
2406;SDS011;37709;53.480;9.688;2023-12-20T07:13:15;8.23;;;3.20;;
2406;SDS011;37709;53.480;9.688;2023-12-20T07:15:42;12.63;;;4.30;;
2406;SDS011;37709;53.480;9.688;2023-12-20T07:18:13;11.40;;;2.90;;
2406;SDS011;37709;53.480;9.688;2023-12-20T07:20:42;7.10;;;3.13;;
2406;SDS011;37709;53.480;9.688;2023-12-20T07:23:10;13.57;;;2.67;;
2406;SDS011;37709;53.480;9.688;2023-12-20T07:25:41;10.87;;;3.00;;
2406;SDS011;37709;53.480;9.688;2023-12-20T07:28:08;8.83;;;2.67;;
2406;SDS011;37709;53.480;9.688;2023-12-20T07:30:36;6.00;;;2.23;;
2406;SDS011;37709;53.480;9.688;2023-12-20T07:33:04;9.23;;;2.90;;
2406;SDS011;37709;53.480;9.688;2023-12-20T07:35:33;10.07;;;2.57;;
2406;SDS011;37709;53.480;9.688;2023-12-20T07:38:01;13.40;;;3.43;;
2406;SDS011;37709;53.480;9.688;2023-12-20T07:40:30;9.97;;;3.73;;
2406;SDS011;37709;53.480;9.688;2023-12-20T07:42:57;11.10;;;3.80;;
2406;SDS011;37709;53.480;9.688;2023-12-20T07:45:26;10.33;;;2.30;;
2406;SDS011;37709;53.480;9.688;2023-12-20T07:47:54;11.90;;;3.30;;
2406;SDS011;37709;53.480;9.688;2023-12-20T07:50:21;9.70;;;2.93;;
2406;SDS011;37709;53.480;9.688;2023-12-20T07:55:41;9.73;;;2.97;;
2406;SDS011;37709;53.480;9.688;2023-12-20T07:58:09;13.20;;;3.33;;
2406;SDS011;37709;53.480;9.688;2023-12-20T08:00:37;8.87;;;3.03;;
2406;SDS011;37709;53.480;9.688;2023-12-20T08:03:05;10.80;;;3.20;;
2406;SDS011;37709;53.480;9.688;2023-12-20T08:05:33;9.97;;;2.53;;
2406;SDS011;37709;53.480;9.688;2023-12-20T08:08:06;10.30;;;2.93;;
2406;SDS011;37709;53.480;9.688;2023-12-20T08:10:33;7.17;;;2.17;;
2406;SDS011;37709;53.480;9.688;2023-12-20T08:13:00;12.63;;;3.60;;
2406;SDS011;37709;53.480;9.688;2023-12-20T08:15:29;7.50;;;2.60;;
2406;SDS011;37709;53.480;9.688;2023-12-20T08:17:58;17.93;;;3.10;;
2406;SDS011;37709;53.480;9.688;2023-12-20T08:20:27;13.10;;;2.60;;
2406;SDS011;37709;53.480;9.688;2023-12-20T08:23:06;7.67;;;2.87;;
2406;SDS011;37709;53.480;9.688;2023-12-20T08:25:33;8.83;;;2.63;;
2406;SDS011;37709;53.480;9.688;2023-12-20T08:28:03;7.90;;;2.80;;
2406;SDS011;37709;53.480;9.688;2023-12-20T08:30:33;8.93;;;2.90;;
2406;SDS011;37709;53.480;9.688;2023-12-20T08:33:01;7.67;;;3.23;;
2406;SDS011;37709;53.480;9.688;2023-12-20T08:35:29;12.17;;;2.73;;
2406;SDS011;37709;53.480;9.688;2023-12-20T08:37:57;12.93;;;3.07;;
2406;SDS011;37709;53.480;9.688;2023-12-20T08:40:27;10.60;;;3.30;;
2406;SDS011;37709;53.480;9.688;2023-12-20T08:42:55;10.63;;;3.33;;
2406;SDS011;37709;53.480;9.688;2023-12-20T08:45:22;15.73;;;3.73;;
2406;SDS011;37709;53.480;9.688;2023-12-20T08:47:50;7.93;;;2.43;;
2406;SDS011;37709;53.480;9.688;2023-12-20T08:50:18;13.67;;;4.83;;
2406;SDS011;37709;53.480;9.688;2023-12-20T08:52:45;18.67;;;3.20;;
2406;SDS011;37709;53.480;9.688;2023-12-20T08:55:13;14.93;;;3.53;;
2406;SDS011;37709;53.480;9.688;2023-12-20T08:57:43;10.80;;;3.60;;
2406;SDS011;37709;53.480;9.688;2023-12-20T09:00:13;10.97;;;2.73;;
2406;SDS011;37709;53.480;9.688;2023-12-20T09:02:41;9.47;;;2.27;;
2406;SDS011;37709;53.480;9.688;2023-12-20T09:05:08;6.10;;;2.40;;
2406;SDS011;37709;53.480;9.688;2023-12-20T09:07:36;3.43;;;1.83;;
2406;SDS011;37709;53.480;9.688;2023-12-20T09:10:03;3.60;;;1.20;;
2406;SDS011;37709;53.480;9.688;2023-12-20T09:12:32;10.17;;;1.80;;
2406;SDS011;37709;53.480;9.688;2023-12-20T09:15:00;8.30;;;1.87;;
2406;SDS011;37709;53.480;9.688;2023-12-20T09:17:31;5.70;;;1.70;;
2406;SDS011;37709;53.480;9.688;2023-12-20T09:20:02;7.83;;;2.13;;
2406;SDS011;37709;53.480;9.688;2023-12-20T09:22:32;2.20;;;1.00;;
2406;SDS011;37709;53.480;9.688;2023-12-20T09:25:01;6.37;;;1.40;;
2406;SDS011;37709;53.480;9.688;2023-12-20T09:27:29;4.57;;;1.00;;
2406;SDS011;37709;53.480;9.688;2023-12-20T09:29:58;2.60;;;1.00;;
2406;SDS011;37709;53.480;9.688;2023-12-20T09:32:25;1.57;;;0.70;;
2406;SDS011;37709;53.480;9.688;2023-12-20T09:34:53;1.63;;;0.70;;
2406;SDS011;37709;53.480;9.688;2023-12-20T09:37:27;2.30;;;0.80;;
2406;SDS011;37709;53.480;9.688;2023-12-20T09:39:55;1.20;;;0.60;;
2406;SDS011;37709;53.480;9.688;2023-12-20T09:42:57;1.13;;;0.53;;
2406;SDS011;37709;53.480;9.688;2023-12-20T09:45:27;1.60;;;0.60;;
2406;SDS011;37709;53.480;9.688;2023-12-20T09:47:55;1.93;;;0.80;;
2406;SDS011;37709;53.480;9.688;2023-12-20T09:50:24;1.80;;;0.90;;
2406;SDS011;37709;53.480;9.688;2023-12-20T09:52:52;2.47;;;0.80;;
2406;SDS011;37709;53.480;9.688;2023-12-20T09:55:20;2.00;;;0.90;;
2406;SDS011;37709;53.480;9.688;2023-12-20T09:57:49;2.07;;;0.50;;
2406;SDS011;37709;53.480;9.688;2023-12-20T10:00:18;4.13;;;0.60;;
2406;SDS011;37709;53.480;9.688;2023-12-20T10:02:50;1.70;;;0.63;;
2406;SDS011;37709;53.480;9.688;2023-12-20T10:05:30;1.47;;;0.97;;
2406;SDS011;37709;53.480;9.688;2023-12-20T10:08:00;1.53;;;0.40;;
2406;SDS011;37709;53.480;9.688;2023-12-20T10:10:30;0.70;;;0.50;;
2406;SDS011;37709;53.480;9.688;2023-12-20T10:13:11;3.03;;;1.10;;
2406;SDS011;37709;53.480;9.688;2023-12-20T10:15:42;1.27;;;0.40;;
2406;SDS011;37709;53.480;9.688;2023-12-20T10:18:09;5.43;;;1.00;;
2406;SDS011;37709;53.480;9.688;2023-12-20T10:20:42;1.80;;;0.50;;
2406;SDS011;37709;53.480;9.688;2023-12-20T10:23:11;1.70;;;0.67;;
2406;SDS011;37709;53.480;9.688;2023-12-20T10:25:40;2.17;;;0.83;;
2406;SDS011;37709;53.480;9.688;2023-12-20T10:30:40;4.03;;;1.00;;
2406;SDS011;37709;53.480;9.688;2023-12-20T10:33:10;2.17;;;0.60;;
2406;SDS011;37709;53.480;9.688;2023-12-20T10:35:40;2.73;;;0.90;;
2406;SDS011;37709;53.480;9.688;2023-12-20T10:38:13;3.43;;;0.90;;
2406;SDS011;37709;53.480;9.688;2023-12-20T10:40:42;3.97;;;1.50;;
2406;SDS011;37709;53.480;9.688;2023-12-20T10:43:13;4.60;;;1.50;;
2406;SDS011;37709;53.480;9.688;2023-12-20T10:45:42;3.13;;;1.07;;
2406;SDS011;37709;53.480;9.688;2023-12-20T10:48:13;5.20;;;1.00;;
2406;SDS011;37709;53.480;9.688;2023-12-20T10:50:42;2.60;;;1.20;;
2406;SDS011;37709;53.480;9.688;2023-12-20T10:53:11;3.87;;;1.00;;
2406;SDS011;37709;53.480;9.688;2023-12-20T10:55:41;4.00;;;1.00;;
2406;SDS011;37709;53.480;9.688;2023-12-20T10:58:10;4.63;;;1.17;;
2406;SDS011;37709;53.480;9.688;2023-12-20T11:00:41;4.63;;;1.27;;
2406;SDS011;37709;53.480;9.688;2023-12-20T11:03:12;5.70;;;1.60;;
2406;SDS011;37709;53.480;9.688;2023-12-20T11:06:18;6.37;;;1.50;;
2406;SDS011;37709;53.480;9.688;2023-12-20T11:08:49;4.35;;;1.13;;
2406;SDS011;37709;53.480;9.688;2023-12-20T11:11:42;6.65;;;1.95;;
2406;SDS011;37709;53.480;9.688;2023-12-20T11:14:31;4.47;;;1.48;;
2406;SDS011;37709;53.480;9.688;2023-12-20T11:17:10;7.53;;;2.07;;
2406;SDS011;37709;53.480;9.688;2023-12-20T11:20:03;5.47;;;1.53;;
2406;SDS011;37709;53.480;9.688;2023-12-20T11:22:32;8.10;;;1.60;;
2406;SDS011;37709;53.480;9.688;2023-12-20T11:25:07;5.33;;;1.93;;
2406;SDS011;37709;53.480;9.688;2023-12-20T11:27:37;5.43;;;1.80;;
2406;SDS011;37709;53.480;9.688;2023-12-20T11:30:11;8.00;;;1.40;;
2406;SDS011;37709;53.480;9.688;2023-12-20T11:32:40;4.10;;;1.23;;
2406;SDS011;37709;53.480;9.688;2023-12-20T11:37:41;4.37;;;1.33;;
2406;SDS011;37709;53.480;9.688;2023-12-20T11:40:16;4.87;;;1.43;;
2406;SDS011;37709;53.480;9.688;2023-12-20T11:42:45;4.57;;;1.50;;
2406;SDS011;37709;53.480;9.688;2023-12-20T11:45:16;8.97;;;1.97;;
2406;SDS011;37709;53.480;9.688;2023-12-20T11:47:46;4.87;;;1.47;;
2406;SDS011;37709;53.480;9.688;2023-12-20T11:50:18;5.77;;;1.70;;
2406;SDS011;37709;53.480;9.688;2023-12-20T11:52:47;8.73;;;2.10;;
2406;SDS011;37709;53.480;9.688;2023-12-20T11:55:15;5.30;;;1.50;;
2406;SDS011;37709;53.480;9.688;2023-12-20T11:57:43;6.43;;;1.70;;
2406;SDS011;37709;53.480;9.688;2023-12-20T12:00:12;2.97;;;1.50;;
2406;SDS011;37709;53.480;9.688;2023-12-20T12:02:41;6.80;;;1.40;;
2406;SDS011;37709;53.480;9.688;2023-12-20T12:05:10;4.80;;;1.47;;
2406;SDS011;37709;53.480;9.688;2023-12-20T12:07:38;5.60;;;3.10;;
2406;SDS011;37709;53.480;9.688;2023-12-20T12:10:06;4.50;;;1.50;;
2406;SDS011;37709;53.480;9.688;2023-12-20T12:12:35;2.57;;;1.10;;
2406;SDS011;37709;53.480;9.688;2023-12-20T12:15:04;3.93;;;1.23;;
2406;SDS011;37709;53.480;9.688;2023-12-20T12:17:32;4.10;;;1.30;;
2406;SDS011;37709;53.480;9.688;2023-12-20T12:20:03;3.23;;;1.30;;
2406;SDS011;37709;53.480;9.688;2023-12-20T12:22:35;6.37;;;1.30;;
2406;SDS011;37709;53.480;9.688;2023-12-20T12:25:10;3.93;;;1.57;;
2406;SDS011;37709;53.480;9.688;2023-12-20T12:27:40;4.00;;;1.43;;
2406;SDS011;37709;53.480;9.688;2023-12-20T12:30:09;5.23;;;1.77;;
2406;SDS011;37709;53.480;9.688;2023-12-20T12:32:40;5.17;;;1.53;;
2406;SDS011;37709;53.480;9.688;2023-12-20T12:35:09;5.73;;;1.37;;
2406;SDS011;37709;53.480;9.688;2023-12-20T12:37:39;3.90;;;1.53;;
2406;SDS011;37709;53.480;9.688;2023-12-20T12:40:11;5.30;;;1.50;;
2406;SDS011;37709;53.480;9.688;2023-12-20T12:42:41;5.30;;;1.73;;
2406;SDS011;37709;53.480;9.688;2023-12-20T12:45:11;3.47;;;1.60;;
2406;SDS011;37709;53.480;9.688;2023-12-20T12:47:39;4.60;;;1.40;;
2406;SDS011;37709;53.480;9.688;2023-12-20T12:50:07;7.50;;;1.50;;
2406;SDS011;37709;53.480;9.688;2023-12-20T12:52:35;3.80;;;1.43;;
2406;SDS011;37709;53.480;9.688;2023-12-20T12:55:03;5.27;;;1.67;;
2406;SDS011;37709;53.480;9.688;2023-12-20T12:57:32;4.57;;;1.10;;
2406;SDS011;37709;53.480;9.688;2023-12-20T13:00:02;6.17;;;1.70;;
2406;SDS011;37709;53.480;9.688;2023-12-20T13:02:30;3.83;;;1.53;;
2406;SDS011;37709;53.480;9.688;2023-12-20T13:04:57;4.63;;;2.10;;
2406;SDS011;37709;53.480;9.688;2023-12-20T13:07:26;7.67;;;2.53;;
2406;SDS011;37709;53.480;9.688;2023-12-20T13:09:55;10.00;;;2.30;;
2406;SDS011;37709;53.480;9.688;2023-12-20T13:12:23;12.83;;;3.10;;
2406;SDS011;37709;53.480;9.688;2023-12-20T13:14:51;9.63;;;2.47;;
2406;SDS011;37709;53.480;9.688;2023-12-20T13:17:19;11.80;;;2.40;;
2406;SDS011;37709;53.480;9.688;2023-12-20T13:19:48;9.57;;;3.10;;
2406;SDS011;37709;53.480;9.688;2023-12-20T13:22:16;10.47;;;2.87;;
2406;SDS011;37709;53.480;9.688;2023-12-20T13:24:45;7.57;;;2.17;;
2406;SDS011;37709;53.480;9.688;2023-12-20T13:27:13;14.87;;;4.50;;
2406;SDS011;37709;53.480;9.688;2023-12-20T13:29:41;14.13;;;3.33;;
2406;SDS011;37709;53.480;9.688;2023-12-20T13:32:09;15.40;;;3.13;;
2406;SDS011;37709;53.480;9.688;2023-12-20T13:34:37;8.27;;;3.17;;
2406;SDS011;37709;53.480;9.688;2023-12-20T13:37:05;7.60;;;3.37;;
2406;SDS011;37709;53.480;9.688;2023-12-20T13:39:32;8.43;;;3.13;;
2406;SDS011;37709;53.480;9.688;2023-12-20T13:41:59;11.47;;;3.10;;
2406;SDS011;37709;53.480;9.688;2023-12-20T13:44:28;11.03;;;3.33;;
2406;SDS011;37709;53.480;9.688;2023-12-20T13:46:56;10.37;;;2.87;;
2406;SDS011;37709;53.480;9.688;2023-12-20T13:49:24;13.43;;;3.13;;
2406;SDS011;37709;53.480;9.688;2023-12-20T13:51:53;9.50;;;2.93;;
2406;SDS011;37709;53.480;9.688;2023-12-20T13:54:22;11.07;;;2.27;;
2406;SDS011;37709;53.480;9.688;2023-12-20T13:56:51;11.37;;;4.70;;
2406;SDS011;37709;53.480;9.688;2023-12-20T13:59:39;9.30;;;2.77;;
2406;SDS011;37709;53.480;9.688;2023-12-20T14:02:07;10.90;;;3.07;;
2406;SDS011;37709;53.480;9.688;2023-12-20T14:04:34;10.37;;;3.30;;
2406;SDS011;37709;53.480;9.688;2023-12-20T14:07:09;8.87;;;2.53;;
2406;SDS011;37709;53.480;9.688;2023-12-20T14:09:39;10.10;;;3.00;;
2406;SDS011;37709;53.480;9.688;2023-12-20T14:12:15;7.37;;;2.57;;
2406;SDS011;37709;53.480;9.688;2023-12-20T14:14:42;14.50;;;3.43;;
2406;SDS011;37709;53.480;9.688;2023-12-20T14:17:11;8.70;;;2.93;;
2406;SDS011;37709;53.480;9.688;2023-12-20T14:19:39;13.73;;;3.63;;
2406;SDS011;37709;53.480;9.688;2023-12-20T14:22:07;9.83;;;4.33;;
2406;SDS011;37709;53.480;9.688;2023-12-20T14:24:36;8.60;;;2.90;;
2406;SDS011;37709;53.480;9.688;2023-12-20T14:27:04;8.90;;;2.83;;
2406;SDS011;37709;53.480;9.688;2023-12-20T14:29:31;13.73;;;4.03;;
2406;SDS011;37709;53.480;9.688;2023-12-20T14:31:59;9.63;;;3.50;;
2406;SDS011;37709;53.480;9.688;2023-12-20T14:34:28;7.93;;;3.10;;
2406;SDS011;37709;53.480;9.688;2023-12-20T14:36:57;10.13;;;3.10;;
2406;SDS011;37709;53.480;9.688;2023-12-20T14:39:25;8.00;;;2.70;;
2406;SDS011;37709;53.480;9.688;2023-12-20T14:41:52;16.30;;;3.63;;
2406;SDS011;37709;53.480;9.688;2023-12-20T14:44:21;15.13;;;3.40;;
2406;SDS011;37709;53.480;9.688;2023-12-20T14:46:48;8.57;;;2.90;;
2406;SDS011;37709;53.480;9.688;2023-12-20T14:49:16;14.50;;;4.13;;
2406;SDS011;37709;53.480;9.688;2023-12-20T14:51:44;12.90;;;4.97;;
2406;SDS011;37709;53.480;9.688;2023-12-20T14:54:11;12.50;;;4.30;;
2406;SDS011;37709;53.480;9.688;2023-12-20T14:56:39;13.53;;;3.83;;
2406;SDS011;37709;53.480;9.688;2023-12-20T14:59:08;15.60;;;3.50;;
2406;SDS011;37709;53.480;9.688;2023-12-20T15:01:36;10.67;;;3.17;;
2406;SDS011;37709;53.480;9.688;2023-12-20T15:04:04;11.60;;;3.63;;
2406;SDS011;37709;53.480;9.688;2023-12-20T15:06:32;8.40;;;3.00;;
2406;SDS011;37709;53.480;9.688;2023-12-20T15:09:00;10.60;;;3.20;;
2406;SDS011;37709;53.480;9.688;2023-12-20T15:11:36;12.73;;;3.30;;
2406;SDS011;37709;53.480;9.688;2023-12-20T15:14:09;9.30;;;3.80;;
2406;SDS011;37709;53.480;9.688;2023-12-20T15:16:38;8.50;;;3.07;;
2406;SDS011;37709;53.480;9.688;2023-12-20T15:19:09;11.87;;;2.30;;
2406;SDS011;37709;53.480;9.688;2023-12-20T15:21:36;5.40;;;2.27;;
2406;SDS011;37709;53.480;9.688;2023-12-20T15:24:13;12.00;;;2.80;;